sensor_id;sensor_type;location;lat;lon;timestamp;P1;durP1;ratioP1;P2;durP2;ratioP2
44214;SDS011;29884;47.450;19.124;2023-03-30T00:00:40;6.68;;;4.00;;
44214;SDS011;29884;47.450;19.124;2023-03-30T00:03:07;6.35;;;3.92;;
44214;SDS011;29884;47.450;19.124;2023-03-30T00:05:34;8.68;;;3.88;;
44214;SDS011;29884;47.450;19.124;2023-03-30T00:08:00;7.28;;;3.67;;
44214;SDS011;29884;47.450;19.124;2023-03-30T00:10:26;6.95;;;3.22;;
44214;SDS011;29884;47.450;19.124;2023-03-30T00:12:53;6.15;;;3.90;;
44214;SDS011;29884;47.450;19.124;2023-03-30T00:15:20;6.85;;;4.45;;
44214;SDS011;29884;47.450;19.124;2023-03-30T00:17:49;7.47;;;4.15;;
44214;SDS011;29884;47.450;19.124;2023-03-30T00:20:19;6.43;;;4.15;;
44214;SDS011;29884;47.450;19.124;2023-03-30T00:22:46;9.88;;;4.53;;
44214;SDS011;29884;47.450;19.124;2023-03-30T00:25:13;7.60;;;3.85;;
44214;SDS011;29884;47.450;19.124;2023-03-30T00:27:40;6.10;;;3.72;;
44214;SDS011;29884;47.450;19.124;2023-03-30T00:30:08;6.60;;;3.85;;
44214;SDS011;29884;47.450;19.124;2023-03-30T00:32:36;7.55;;;3.38;;
44214;SDS011;29884;47.450;19.124;2023-03-30T00:35:02;6.07;;;3.15;;
44214;SDS011;29884;47.450;19.124;2023-03-30T00:37:29;5.97;;;3.20;;
44214;SDS011;29884;47.450;19.124;2023-03-30T00:39:55;5.82;;;3.40;;
44214;SDS011;29884;47.450;19.124;2023-03-30T00:42:20;4.78;;;3.05;;
44214;SDS011;29884;47.450;19.124;2023-03-30T00:45:01;6.10;;;2.75;;
44214;SDS011;29884;47.450;19.124;2023-03-30T00:47:46;5.43;;;2.67;;
44214;SDS011;29884;47.450;19.124;2023-03-30T00:51:10;5.40;;;2.60;;
44214;SDS011;29884;47.450;19.124;2023-03-30T00:53:58;6.68;;;2.90;;
44214;SDS011;29884;47.450;19.124;2023-03-30T00:56:07;5.18;;;2.70;;
44214;SDS011;29884;47.450;19.124;2023-03-30T00:58:35;7.18;;;2.88;;
44214;SDS011;29884;47.450;19.124;2023-03-30T01:01:03;7.70;;;3.63;;
44214;SDS011;29884;47.450;19.124;2023-03-30T01:03:35;7.93;;;3.60;;
44214;SDS011;29884;47.450;19.124;2023-03-30T01:06:07;7.93;;;3.47;;
44214;SDS011;29884;47.450;19.124;2023-03-30T01:08:34;11.05;;;4.30;;
44214;SDS011;29884;47.450;19.124;2023-03-30T01:11:01;9.07;;;4.07;;
44214;SDS011;29884;47.450;19.124;2023-03-30T01:13:29;9.70;;;4.13;;
44214;SDS011;29884;47.450;19.124;2023-03-30T01:16:01;8.25;;;4.32;;
44214;SDS011;29884;47.450;19.124;2023-03-30T01:18:46;7.93;;;3.70;;
44214;SDS011;29884;47.450;19.124;2023-03-30T01:38:38;13.43;;;5.43;;
44214;SDS011;29884;47.450;19.124;2023-03-30T01:43:49;12.35;;;6.03;;
44214;SDS011;29884;47.450;19.124;2023-03-30T01:46:24;16.48;;;5.97;;
44214;SDS011;29884;47.450;19.124;2023-03-30T01:54:35;19.52;;;6.30;;
44214;SDS011;29884;47.450;19.124;2023-03-30T01:59:39;16.73;;;6.60;;
44214;SDS011;29884;47.450;19.124;2023-03-30T02:02:17;13.43;;;5.97;;
44214;SDS011;29884;47.450;19.124;2023-03-30T02:04:46;16.08;;;6.43;;
44214;SDS011;29884;47.450;19.124;2023-03-30T02:07:16;15.95;;;6.03;;
44214;SDS011;29884;47.450;19.124;2023-03-30T02:09:47;15.40;;;6.13;;
44214;SDS011;29884;47.450;19.124;2023-03-30T02:12:16;12.35;;;6.00;;
44214;SDS011;29884;47.450;19.124;2023-03-30T02:14:44;15.38;;;5.88;;
44214;SDS011;29884;47.450;19.124;2023-03-30T02:17:13;15.20;;;5.97;;
44214;SDS011;29884;47.450;19.124;2023-03-30T02:22:11;11.30;;;5.50;;
44214;SDS011;29884;47.450;19.124;2023-03-30T02:24:39;14.52;;;5.97;;
44214;SDS011;29884;47.450;19.124;2023-03-30T02:27:07;13.43;;;5.40;;
44214;SDS011;29884;47.450;19.124;2023-03-30T02:29:33;16.70;;;6.10;;
44214;SDS011;29884;47.450;19.124;2023-03-30T02:32:03;16.60;;;6.82;;
44214;SDS011;29884;47.450;19.124;2023-03-30T02:34:34;15.48;;;6.78;;
44214;SDS011;29884;47.450;19.124;2023-03-30T02:45:29;12.10;;;5.60;;
44214;SDS011;29884;47.450;19.124;2023-03-30T02:56:09;12.90;;;5.50;;
44214;SDS011;29884;47.450;19.124;2023-03-30T02:58:46;13.73;;;5.28;;
44214;SDS011;29884;47.450;19.124;2023-03-30T03:01:41;11.20;;;5.13;;
44214;SDS011;29884;47.450;19.124;2023-03-30T03:04:08;12.02;;;4.82;;
44214;SDS011;29884;47.450;19.124;2023-03-30T03:06:35;11.57;;;5.03;;
44214;SDS011;29884;47.450;19.124;2023-03-30T03:09:03;9.88;;;4.82;;
44214;SDS011;29884;47.450;19.124;2023-03-30T03:11:29;12.93;;;5.53;;
44214;SDS011;29884;47.450;19.124;2023-03-30T03:13:55;12.07;;;5.15;;
44214;SDS011;29884;47.450;19.124;2023-03-30T03:16:21;10.77;;;4.68;;
44214;SDS011;29884;47.450;19.124;2023-03-30T03:18:47;10.80;;;4.78;;
44214;SDS011;29884;47.450;19.124;2023-03-30T03:21:13;13.15;;;4.75;;
44214;SDS011;29884;47.450;19.124;2023-03-30T03:23:39;8.15;;;4.57;;
44214;SDS011;29884;47.450;19.124;2023-03-30T03:26:05;10.90;;;4.75;;
44214;SDS011;29884;47.450;19.124;2023-03-30T03:28:32;13.95;;;4.68;;
44214;SDS011;29884;47.450;19.124;2023-03-30T03:30:58;6.82;;;3.90;;
44214;SDS011;29884;47.450;19.124;2023-03-30T03:33:24;9.85;;;4.10;;
44214;SDS011;29884;47.450;19.124;2023-03-30T03:35:51;7.50;;;4.18;;
44214;SDS011;29884;47.450;19.124;2023-03-30T03:38:23;6.68;;;3.50;;
44214;SDS011;29884;47.450;19.124;2023-03-30T03:40:51;7.30;;;4.20;;
44214;SDS011;29884;47.450;19.124;2023-03-30T03:43:18;7.60;;;3.90;;
44214;SDS011;29884;47.450;19.124;2023-03-30T03:45:45;8.05;;;3.88;;
44214;SDS011;29884;47.450;19.124;2023-03-30T03:48:12;12.32;;;4.32;;
44214;SDS011;29884;47.450;19.124;2023-03-30T03:50:39;8.50;;;3.90;;
44214;SDS011;29884;47.450;19.124;2023-03-30T03:53:05;7.55;;;3.95;;
44214;SDS011;29884;47.450;19.124;2023-03-30T03:55:32;6.80;;;3.58;;
44214;SDS011;29884;47.450;19.124;2023-03-30T03:57:59;10.07;;;4.10;;
44214;SDS011;29884;47.450;19.124;2023-03-30T04:00:26;7.25;;;3.55;;
44214;SDS011;29884;47.450;19.124;2023-03-30T04:02:53;8.77;;;4.30;;
44214;SDS011;29884;47.450;19.124;2023-03-30T04:05:19;7.88;;;3.67;;
44214;SDS011;29884;47.450;19.124;2023-03-30T04:07:45;7.72;;;3.60;;
44214;SDS011;29884;47.450;19.124;2023-03-30T04:10:11;7.28;;;3.65;;
44214;SDS011;29884;47.450;19.124;2023-03-30T04:12:37;5.88;;;3.42;;
44214;SDS011;29884;47.450;19.124;2023-03-30T04:15:04;6.80;;;3.60;;
44214;SDS011;29884;47.450;19.124;2023-03-30T04:17:30;7.72;;;3.47;;
44214;SDS011;29884;47.450;19.124;2023-03-30T04:20:00;7.85;;;4.25;;
44214;SDS011;29884;47.450;19.124;2023-03-30T04:22:32;5.75;;;3.83;;
44214;SDS011;29884;47.450;19.124;2023-03-30T04:25:01;6.95;;;3.88;;
44214;SDS011;29884;47.450;19.124;2023-03-30T04:27:31;8.48;;;4.05;;
44214;SDS011;29884;47.450;19.124;2023-03-30T04:29:57;9.38;;;4.05;;
44214;SDS011;29884;47.450;19.124;2023-03-30T04:32:23;8.05;;;4.15;;
44214;SDS011;29884;47.450;19.124;2023-03-30T04:34:49;7.90;;;4.50;;
44214;SDS011;29884;47.450;19.124;2023-03-30T04:37:21;8.43;;;4.30;;
44214;SDS011;29884;47.450;19.124;2023-03-30T04:39:54;13.10;;;4.28;;
44214;SDS011;29884;47.450;19.124;2023-03-30T04:42:24;7.13;;;3.80;;
44214;SDS011;29884;47.450;19.124;2023-03-30T04:45:01;8.07;;;3.53;;
44214;SDS011;29884;47.450;19.124;2023-03-30T04:47:28;9.05;;;4.47;;
44214;SDS011;29884;47.450;19.124;2023-03-30T04:49:54;7.80;;;4.28;;
44214;SDS011;29884;47.450;19.124;2023-03-30T04:52:20;9.63;;;3.95;;
44214;SDS011;29884;47.450;19.124;2023-03-30T04:54:46;15.80;;;6.47;;
44214;SDS011;29884;47.450;19.124;2023-03-30T04:57:12;16.92;;;9.73;;
44214;SDS011;29884;47.450;19.124;2023-03-30T04:59:42;9.90;;;4.90;;
44214;SDS011;29884;47.450;19.124;2023-03-30T05:02:09;9.50;;;4.70;;
44214;SDS011;29884;47.450;19.124;2023-03-30T05:04:36;9.27;;;4.45;;
44214;SDS011;29884;47.450;19.124;2023-03-30T05:07:03;10.02;;;4.25;;
44214;SDS011;29884;47.450;19.124;2023-03-30T05:09:30;15.68;;;4.38;;
44214;SDS011;29884;47.450;19.124;2023-03-30T05:11:57;8.70;;;3.85;;
44214;SDS011;29884;47.450;19.124;2023-03-30T05:14:23;9.98;;;4.07;;
44214;SDS011;29884;47.450;19.124;2023-03-30T05:16:49;7.20;;;3.72;;
44214;SDS011;29884;47.450;19.124;2023-03-30T05:19:16;13.40;;;4.10;;
44214;SDS011;29884;47.450;19.124;2023-03-30T05:21:41;9.07;;;3.97;;
44214;SDS011;29884;47.450;19.124;2023-03-30T05:24:07;9.93;;;4.30;;
44214;SDS011;29884;47.450;19.124;2023-03-30T05:26:33;14.55;;;4.03;;
44214;SDS011;29884;47.450;19.124;2023-03-30T05:28:59;6.15;;;3.85;;
44214;SDS011;29884;47.450;19.124;2023-03-30T05:31:25;8.95;;;4.35;;
44214;SDS011;29884;47.450;19.124;2023-03-30T05:33:51;8.32;;;3.70;;
44214;SDS011;29884;47.450;19.124;2023-03-30T05:36:18;6.95;;;3.95;;
44214;SDS011;29884;47.450;19.124;2023-03-30T05:38:44;8.82;;;3.65;;
44214;SDS011;29884;47.450;19.124;2023-03-30T05:41:09;8.05;;;3.40;;
44214;SDS011;29884;47.450;19.124;2023-03-30T05:43:35;5.03;;;2.92;;
44214;SDS011;29884;47.450;19.124;2023-03-30T05:46:02;7.93;;;3.50;;
44214;SDS011;29884;47.450;19.124;2023-03-30T05:48:28;10.43;;;3.47;;
44214;SDS011;29884;47.450;19.124;2023-03-30T05:50:54;8.95;;;4.38;;
44214;SDS011;29884;47.450;19.124;2023-03-30T05:53:20;9.50;;;4.30;;
44214;SDS011;29884;47.450;19.124;2023-03-30T05:55:46;8.85;;;4.30;;
44214;SDS011;29884;47.450;19.124;2023-03-30T05:58:13;10.55;;;4.20;;
44214;SDS011;29884;47.450;19.124;2023-03-30T06:00:41;7.40;;;3.97;;
44214;SDS011;29884;47.450;19.124;2023-03-30T06:03:08;8.73;;;4.72;;
44214;SDS011;29884;47.450;19.124;2023-03-30T06:05:34;9.70;;;4.20;;
44214;SDS011;29884;47.450;19.124;2023-03-30T06:08:05;12.85;;;4.18;;
44214;SDS011;29884;47.450;19.124;2023-03-30T06:10:32;10.70;;;4.40;;
44214;SDS011;29884;47.450;19.124;2023-03-30T06:12:58;9.00;;;4.50;;
44214;SDS011;29884;47.450;19.124;2023-03-30T06:15:24;12.35;;;4.85;;
44214;SDS011;29884;47.450;19.124;2023-03-30T06:17:51;12.20;;;4.82;;
44214;SDS011;29884;47.450;19.124;2023-03-30T06:20:17;11.80;;;4.32;;
44214;SDS011;29884;47.450;19.124;2023-03-30T06:22:45;9.40;;;4.03;;
44214;SDS011;29884;47.450;19.124;2023-03-30T06:25:11;8.35;;;4.03;;
44214;SDS011;29884;47.450;19.124;2023-03-30T06:27:37;9.45;;;4.20;;
44214;SDS011;29884;47.450;19.124;2023-03-30T06:30:03;9.20;;;4.53;;
44214;SDS011;29884;47.450;19.124;2023-03-30T06:32:30;10.20;;;4.60;;
44214;SDS011;29884;47.450;19.124;2023-03-30T06:34:56;11.15;;;4.55;;
44214;SDS011;29884;47.450;19.124;2023-03-30T06:37:21;9.30;;;4.00;;
44214;SDS011;29884;47.450;19.124;2023-03-30T06:39:47;8.20;;;4.30;;
44214;SDS011;29884;47.450;19.124;2023-03-30T06:42:13;10.35;;;4.65;;
44214;SDS011;29884;47.450;19.124;2023-03-30T06:44:39;9.07;;;3.75;;
44214;SDS011;29884;47.450;19.124;2023-03-30T06:47:05;9.00;;;3.92;;
44214;SDS011;29884;47.450;19.124;2023-03-30T06:49:31;9.50;;;4.03;;
44214;SDS011;29884;47.450;19.124;2023-03-30T06:51:57;8.60;;;3.50;;
44214;SDS011;29884;47.450;19.124;2023-03-30T06:54:23;8.90;;;3.55;;
44214;SDS011;29884;47.450;19.124;2023-03-30T06:56:49;8.30;;;3.15;;
44214;SDS011;29884;47.450;19.124;2023-03-30T06:59:16;7.70;;;3.95;;
44214;SDS011;29884;47.450;19.124;2023-03-30T07:01:42;9.10;;;3.65;;
44214;SDS011;29884;47.450;19.124;2023-03-30T07:04:09;8.23;;;3.67;;
44214;SDS011;29884;47.450;19.124;2023-03-30T07:06:35;9.93;;;4.00;;
44214;SDS011;29884;47.450;19.124;2023-03-30T07:09:01;10.43;;;3.85;;
44214;SDS011;29884;47.450;19.124;2023-03-30T07:11:29;5.57;;;3.45;;
44214;SDS011;29884;47.450;19.124;2023-03-30T07:13:56;9.27;;;3.63;;
44214;SDS011;29884;47.450;19.124;2023-03-30T07:16:22;7.45;;;3.90;;
44214;SDS011;29884;47.450;19.124;2023-03-30T07:18:49;6.60;;;3.58;;
44214;SDS011;29884;47.450;19.124;2023-03-30T07:21:16;8.90;;;3.60;;
44214;SDS011;29884;47.450;19.124;2023-03-30T07:23:42;5.65;;;3.92;;
44214;SDS011;29884;47.450;19.124;2023-03-30T07:26:08;6.80;;;3.45;;
44214;SDS011;29884;47.450;19.124;2023-03-30T07:28:35;5.25;;;3.28;;
44214;SDS011;29884;47.450;19.124;2023-03-30T07:31:05;7.07;;;3.42;;
44214;SDS011;29884;47.450;19.124;2023-03-30T07:33:35;10.13;;;3.63;;
44214;SDS011;29884;47.450;19.124;2023-03-30T07:36:01;7.78;;;3.38;;
44214;SDS011;29884;47.450;19.124;2023-03-30T07:38:27;8.77;;;3.85;;
44214;SDS011;29884;47.450;19.124;2023-03-30T07:40:53;6.53;;;3.83;;
44214;SDS011;29884;47.450;19.124;2023-03-30T07:43:19;7.10;;;3.88;;
44214;SDS011;29884;47.450;19.124;2023-03-30T07:45:45;6.50;;;3.83;;
44214;SDS011;29884;47.450;19.124;2023-03-30T07:48:11;5.50;;;3.47;;
44214;SDS011;29884;47.450;19.124;2023-03-30T07:50:37;8.38;;;3.38;;
44214;SDS011;29884;47.450;19.124;2023-03-30T07:53:03;7.70;;;3.70;;
44214;SDS011;29884;47.450;19.124;2023-03-30T07:55:29;8.20;;;4.10;;
44214;SDS011;29884;47.450;19.124;2023-03-30T07:57:56;6.82;;;3.60;;
44214;SDS011;29884;47.450;19.124;2023-03-30T08:00:22;5.82;;;3.88;;
44214;SDS011;29884;47.450;19.124;2023-03-30T08:02:49;8.32;;;3.75;;
44214;SDS011;29884;47.450;19.124;2023-03-30T08:05:15;7.28;;;3.67;;
44214;SDS011;29884;47.450;19.124;2023-03-30T08:07:42;7.47;;;4.32;;
44214;SDS011;29884;47.450;19.124;2023-03-30T08:10:09;7.13;;;4.15;;
44214;SDS011;29884;47.450;19.124;2023-03-30T08:12:35;10.73;;;4.00;;
44214;SDS011;29884;47.450;19.124;2023-03-30T08:15:02;8.43;;;4.38;;
44214;SDS011;29884;47.450;19.124;2023-03-30T08:17:28;8.48;;;4.55;;
44214;SDS011;29884;47.450;19.124;2023-03-30T08:19:55;9.60;;;4.82;;
44214;SDS011;29884;47.450;19.124;2023-03-30T08:22:21;7.32;;;4.28;;
44214;SDS011;29884;47.450;19.124;2023-03-30T08:24:47;9.02;;;4.82;;
44214;SDS011;29884;47.450;19.124;2023-03-30T08:27:13;9.13;;;5.03;;
44214;SDS011;29884;47.450;19.124;2023-03-30T08:29:39;7.60;;;4.30;;
44214;SDS011;29884;47.450;19.124;2023-03-30T08:32:09;8.45;;;4.53;;
44214;SDS011;29884;47.450;19.124;2023-03-30T08:34:35;7.88;;;4.40;;
44214;SDS011;29884;47.450;19.124;2023-03-30T08:37:01;8.52;;;4.63;;
44214;SDS011;29884;47.450;19.124;2023-03-30T08:39:28;8.68;;;4.65;;
44214;SDS011;29884;47.450;19.124;2023-03-30T08:47:04;9.10;;;5.00;;
44214;SDS011;29884;47.450;19.124;2023-03-30T08:49:40;8.85;;;4.97;;
44214;SDS011;29884;47.450;19.124;2023-03-30T08:52:12;8.75;;;5.10;;
44214;SDS011;29884;47.450;19.124;2023-03-30T08:54:47;10.13;;;5.05;;
44214;SDS011;29884;47.450;19.124;2023-03-30T09:02:45;9.10;;;5.50;;
44214;SDS011;29884;47.450;19.124;2023-03-30T09:07:54;10.32;;;5.72;;
44214;SDS011;29884;47.450;19.124;2023-03-30T09:10:35;8.50;;;5.40;;
44214;SDS011;29884;47.450;19.124;2023-03-30T09:13:04;12.05;;;5.28;;
44214;SDS011;29884;47.450;19.124;2023-03-30T09:18:27;7.63;;;4.55;;
44214;SDS011;29884;47.450;19.124;2023-03-30T09:23:25;7.57;;;4.70;;
44214;SDS011;29884;47.450;19.124;2023-03-30T09:37:12;10.35;;;6.10;;
44214;SDS011;29884;47.450;19.124;2023-03-30T09:39:46;7.75;;;5.50;;
44214;SDS011;29884;47.450;19.124;2023-03-30T09:42:32;11.48;;;5.50;;
44214;SDS011;29884;47.450;19.124;2023-03-30T09:45:30;11.35;;;5.85;;
44214;SDS011;29884;47.450;19.124;2023-03-30T09:48:02;11.80;;;5.90;;
44214;SDS011;29884;47.450;19.124;2023-03-30T09:50:32;8.40;;;5.82;;
44214;SDS011;29884;47.450;19.124;2023-03-30T09:53:16;10.98;;;6.20;;
44214;SDS011;29884;47.450;19.124;2023-03-30T09:55:58;13.50;;;8.07;;
44214;SDS011;29884;47.450;19.124;2023-03-30T09:58:27;12.77;;;6.50;;
44214;SDS011;29884;47.450;19.124;2023-03-30T10:01:03;11.30;;;6.03;;
44214;SDS011;29884;47.450;19.124;2023-03-30T10:03:35;9.70;;;6.40;;
44214;SDS011;29884;47.450;19.124;2023-03-30T10:06:05;10.20;;;6.60;;
44214;SDS011;29884;47.450;19.124;2023-03-30T10:11:07;14.75;;;7.93;;
44214;SDS011;29884;47.450;19.124;2023-03-30T10:13:37;12.60;;;6.63;;
44214;SDS011;29884;47.450;19.124;2023-03-30T10:16:07;10.45;;;6.35;;
44214;SDS011;29884;47.450;19.124;2023-03-30T10:18:50;12.68;;;6.22;;
44214;SDS011;29884;47.450;19.124;2023-03-30T10:21:19;10.68;;;6.53;;
44214;SDS011;29884;47.450;19.124;2023-03-30T10:23:58;12.20;;;7.70;;
44214;SDS011;29884;47.450;19.124;2023-03-30T10:26:45;13.63;;;7.20;;
44214;SDS011;29884;47.450;19.124;2023-03-30T10:29:16;10.23;;;6.28;;
44214;SDS011;29884;47.450;19.124;2023-03-30T10:31:47;10.55;;;6.30;;
44214;SDS011;29884;47.450;19.124;2023-03-30T10:34:22;8.88;;;6.47;;
44214;SDS011;29884;47.450;19.124;2023-03-30T10:36:59;11.27;;;6.78;;
44214;SDS011;29884;47.450;19.124;2023-03-30T10:39:29;12.85;;;6.80;;
44214;SDS011;29884;47.450;19.124;2023-03-30T10:42:00;10.82;;;6.82;;
44214;SDS011;29884;47.450;19.124;2023-03-30T10:44:42;14.70;;;7.70;;
44214;SDS011;29884;47.450;19.124;2023-03-30T10:50:05;10.77;;;6.85;;
44214;SDS011;29884;47.450;19.124;2023-03-30T10:53:21;9.82;;;6.32;;
44214;SDS011;29884;47.450;19.124;2023-03-30T11:04:17;10.88;;;6.82;;
44214;SDS011;29884;47.450;19.124;2023-03-30T11:06:52;12.40;;;6.72;;
44214;SDS011;29884;47.450;19.124;2023-03-30T11:09:21;9.02;;;6.55;;
44214;SDS011;29884;47.450;19.124;2023-03-30T11:12:20;11.07;;;6.88;;
44214;SDS011;29884;47.450;19.124;2023-03-30T11:14:58;13.60;;;6.97;;
44214;SDS011;29884;47.450;19.124;2023-03-30T11:17:33;10.95;;;7.10;;
44214;SDS011;29884;47.450;19.124;2023-03-30T11:20:18;10.57;;;6.28;;
44214;SDS011;29884;47.450;19.124;2023-03-30T11:22:57;14.05;;;7.15;;
44214;SDS011;29884;47.450;19.124;2023-03-30T11:25:36;10.90;;;6.78;;
44214;SDS011;29884;47.450;19.124;2023-03-30T11:30:41;9.93;;;6.72;;
44214;SDS011;29884;47.450;19.124;2023-03-30T11:33:20;9.70;;;6.22;;
44214;SDS011;29884;47.450;19.124;2023-03-30T11:35:57;9.75;;;6.30;;
44214;SDS011;29884;47.450;19.124;2023-03-30T11:38:38;13.20;;;7.15;;
44214;SDS011;29884;47.450;19.124;2023-03-30T11:41:12;10.75;;;7.20;;
44214;SDS011;29884;47.450;19.124;2023-03-30T11:43:39;12.07;;;6.55;;
44214;SDS011;29884;47.450;19.124;2023-03-30T11:59:46;9.38;;;6.55;;
44214;SDS011;29884;47.450;19.124;2023-03-30T12:10:47;9.77;;;6.20;;
44214;SDS011;29884;47.450;19.124;2023-03-30T12:13:24;12.18;;;6.57;;
44214;SDS011;29884;47.450;19.124;2023-03-30T12:19:09;9.43;;;6.60;;
44214;SDS011;29884;47.450;19.124;2023-03-30T12:21:30;9.68;;;7.75;;
44214;SDS011;29884;47.450;19.124;2023-03-30T12:26:41;10.82;;;6.72;;
44214;SDS011;29884;47.450;19.124;2023-03-30T12:29:10;10.65;;;6.88;;
44214;SDS011;29884;47.450;19.124;2023-03-30T12:34:30;9.00;;;6.10;;
44214;SDS011;29884;47.450;19.124;2023-03-30T12:37:11;13.27;;;6.88;;
44214;SDS011;29884;47.450;19.124;2023-03-30T12:42:23;10.07;;;6.68;;
44214;SDS011;29884;47.450;19.124;2023-03-30T13:01:53;10.60;;;6.28;;
44214;SDS011;29884;47.450;19.124;2023-03-30T13:04:33;15.00;;;6.43;;
44214;SDS011;29884;47.450;19.124;2023-03-30T13:07:03;8.90;;;5.45;;
44214;SDS011;29884;47.450;19.124;2023-03-30T13:09:53;8.95;;;5.25;;
44214;SDS011;29884;47.450;19.124;2023-03-30T13:17:56;8.70;;;5.40;;
44214;SDS011;29884;47.450;19.124;2023-03-30T13:20:31;11.93;;;6.03;;
44214;SDS011;29884;47.450;19.124;2023-03-30T13:25:43;10.73;;;5.70;;
44214;SDS011;29884;47.450;19.124;2023-03-30T13:31:30;11.32;;;5.78;;
44214;SDS011;29884;47.450;19.124;2023-03-30T13:34:22;10.77;;;5.93;;
44214;SDS011;29884;47.450;19.124;2023-03-30T13:36:56;11.45;;;5.45;;
44214;SDS011;29884;47.450;19.124;2023-03-30T13:39:46;7.63;;;5.97;;
44214;SDS011;29884;47.450;19.124;2023-03-30T13:48:09;12.23;;;5.38;;
44214;SDS011;29884;47.450;19.124;2023-03-30T13:50:51;7.45;;;5.72;;
44214;SDS011;29884;47.450;19.124;2023-03-30T13:55:51;8.70;;;5.38;;
44214;SDS011;29884;47.450;19.124;2023-03-30T13:58:21;14.23;;;9.40;;
44214;SDS011;29884;47.450;19.124;2023-03-30T14:01:15;9.88;;;6.22;;
44214;SDS011;29884;47.450;19.124;2023-03-30T14:03:49;9.18;;;6.00;;
44214;SDS011;29884;47.450;19.124;2023-03-30T14:06:20;9.60;;;5.72;;
44214;SDS011;29884;47.450;19.124;2023-03-30T14:09:25;8.88;;;5.78;;
44214;SDS011;29884;47.450;19.124;2023-03-30T14:11:52;9.85;;;5.70;;
44214;SDS011;29884;47.450;19.124;2023-03-30T14:14:30;11.10;;;6.57;;
44214;SDS011;29884;47.450;19.124;2023-03-30T14:17:18;11.40;;;6.25;;
44214;SDS011;29884;47.450;19.124;2023-03-30T14:22:39;10.32;;;6.05;;
44214;SDS011;29884;47.450;19.124;2023-03-30T14:25:25;9.90;;;5.80;;
44214;SDS011;29884;47.450;19.124;2023-03-30T14:28:06;8.13;;;5.47;;
44214;SDS011;29884;47.450;19.124;2023-03-30T14:30:48;12.35;;;5.97;;
44214;SDS011;29884;47.450;19.124;2023-03-30T14:33:19;9.77;;;5.88;;
44214;SDS011;29884;47.450;19.124;2023-03-30T14:35:46;9.02;;;5.38;;
44214;SDS011;29884;47.450;19.124;2023-03-30T14:38:21;10.35;;;6.00;;
44214;SDS011;29884;47.450;19.124;2023-03-30T14:41:14;11.77;;;5.45;;
44214;SDS011;29884;47.450;19.124;2023-03-30T14:43:50;11.60;;;5.00;;
44214;SDS011;29884;47.450;19.124;2023-03-30T14:46:26;8.77;;;5.60;;
44214;SDS011;29884;47.450;19.124;2023-03-30T14:48:59;8.43;;;6.10;;
44214;SDS011;29884;47.450;19.124;2023-03-30T14:51:37;8.65;;;5.38;;
44214;SDS011;29884;47.450;19.124;2023-03-30T14:54:06;7.95;;;5.47;;
44214;SDS011;29884;47.450;19.124;2023-03-30T14:56:37;7.70;;;5.32;;
44214;SDS011;29884;47.450;19.124;2023-03-30T14:59:04;9.38;;;5.32;;
44214;SDS011;29884;47.450;19.124;2023-03-30T15:01:31;9.35;;;5.68;;
44214;SDS011;29884;47.450;19.124;2023-03-30T15:03:58;6.22;;;5.05;;
44214;SDS011;29884;47.450;19.124;2023-03-30T15:06:32;8.27;;;5.00;;
44214;SDS011;29884;47.450;19.124;2023-03-30T15:09:01;11.95;;;5.18;;
44214;SDS011;29884;47.450;19.124;2023-03-30T15:11:30;8.52;;;5.20;;
44214;SDS011;29884;47.450;19.124;2023-03-30T15:14:02;7.55;;;4.45;;
44214;SDS011;29884;47.450;19.124;2023-03-30T15:16:32;8.40;;;4.50;;
44214;SDS011;29884;47.450;19.124;2023-03-30T15:19:33;9.80;;;5.03;;
44214;SDS011;29884;47.450;19.124;2023-03-30T15:21:56;11.13;;;4.38;;
44214;SDS011;29884;47.450;19.124;2023-03-30T15:24:25;7.25;;;4.55;;
44214;SDS011;29884;47.450;19.124;2023-03-30T15:26:56;8.73;;;4.65;;
44214;SDS011;29884;47.450;19.124;2023-03-30T15:29:25;6.80;;;4.53;;
44214;SDS011;29884;47.450;19.124;2023-03-30T15:32:05;8.32;;;4.47;;
44214;SDS011;29884;47.450;19.124;2023-03-30T15:34:33;9.38;;;3.95;;
44214;SDS011;29884;47.450;19.124;2023-03-30T15:36:59;6.57;;;3.50;;
44214;SDS011;29884;47.450;19.124;2023-03-30T15:39:26;6.75;;;3.20;;
44214;SDS011;29884;47.450;19.124;2023-03-30T15:42:04;9.23;;;3.60;;
44214;SDS011;29884;47.450;19.124;2023-03-30T15:44:32;6.72;;;3.70;;
44214;SDS011;29884;47.450;19.124;2023-03-30T15:47:00;9.10;;;3.30;;
44214;SDS011;29884;47.450;19.124;2023-03-30T15:49:28;8.10;;;3.50;;
44214;SDS011;29884;47.450;19.124;2023-03-30T15:52:02;7.10;;;3.20;;
44214;SDS011;29884;47.450;19.124;2023-03-30T15:54:38;5.30;;;3.40;;
44214;SDS011;29884;47.450;19.124;2023-03-30T15:59:36;4.95;;;3.75;;
44214;SDS011;29884;47.450;19.124;2023-03-30T16:02:16;6.60;;;3.40;;
44214;SDS011;29884;47.450;19.124;2023-03-30T16:04:42;7.78;;;4.10;;
44214;SDS011;29884;47.450;19.124;2023-03-30T16:07:13;7.90;;;4.05;;
44214;SDS011;29884;47.450;19.124;2023-03-30T16:09:41;7.95;;;4.35;;
44214;SDS011;29884;47.450;19.124;2023-03-30T16:12:08;6.68;;;3.85;;
44214;SDS011;29884;47.450;19.124;2023-03-30T16:14:37;11.10;;;3.42;;
44214;SDS011;29884;47.450;19.124;2023-03-30T16:17:03;5.45;;;3.50;;
44214;SDS011;29884;47.450;19.124;2023-03-30T16:19:30;6.00;;;3.85;;
44214;SDS011;29884;47.450;19.124;2023-03-30T16:21:55;7.85;;;3.80;;
44214;SDS011;29884;47.450;19.124;2023-03-30T16:24:25;7.18;;;4.13;;
44214;SDS011;29884;47.450;19.124;2023-03-30T16:26:50;8.50;;;3.72;;
44214;SDS011;29884;47.450;19.124;2023-03-30T16:29:20;5.72;;;3.72;;
44214;SDS011;29884;47.450;19.124;2023-03-30T16:31:49;8.03;;;4.47;;
44214;SDS011;29884;47.450;19.124;2023-03-30T16:34:15;10.73;;;4.80;;
44214;SDS011;29884;47.450;19.124;2023-03-30T16:36:42;8.52;;;4.90;;
44214;SDS011;29884;47.450;19.124;2023-03-30T16:39:21;8.20;;;5.00;;
44214;SDS011;29884;47.450;19.124;2023-03-30T16:41:49;8.95;;;4.85;;
44214;SDS011;29884;47.450;19.124;2023-03-30T16:44:16;12.30;;;5.88;;
44214;SDS011;29884;47.450;19.124;2023-03-30T16:46:43;8.40;;;5.85;;
44214;SDS011;29884;47.450;19.124;2023-03-30T16:49:19;8.75;;;5.80;;
44214;SDS011;29884;47.450;19.124;2023-03-30T16:51:47;10.10;;;6.88;;
44214;SDS011;29884;47.450;19.124;2023-03-30T16:54:13;9.68;;;6.00;;
44214;SDS011;29884;47.450;19.124;2023-03-30T16:56:38;11.55;;;6.72;;
44214;SDS011;29884;47.450;19.124;2023-03-30T16:59:05;9.45;;;6.47;;
44214;SDS011;29884;47.450;19.124;2023-03-30T17:01:35;13.43;;;6.85;;
44214;SDS011;29884;47.450;19.124;2023-03-30T17:04:01;12.10;;;7.25;;
44214;SDS011;29884;47.450;19.124;2023-03-30T17:06:33;20.02;;;8.77;;
44214;SDS011;29884;47.450;19.124;2023-03-30T17:08:59;14.63;;;8.00;;
44214;SDS011;29884;47.450;19.124;2023-03-30T17:11:25;14.07;;;8.73;;
44214;SDS011;29884;47.450;19.124;2023-03-30T17:13:51;15.35;;;9.68;;
44214;SDS011;29884;47.450;19.124;2023-03-30T17:16:17;16.42;;;10.07;;
44214;SDS011;29884;47.450;19.124;2023-03-30T17:18:42;17.10;;;9.57;;
44214;SDS011;29884;47.450;19.124;2023-03-30T17:21:08;13.52;;;9.48;;
44214;SDS011;29884;47.450;19.124;2023-03-30T17:23:40;13.85;;;9.98;;
44214;SDS011;29884;47.450;19.124;2023-03-30T17:26:08;16.70;;;9.93;;
44214;SDS011;29884;47.450;19.124;2023-03-30T17:28:36;14.10;;;9.65;;
44214;SDS011;29884;47.450;19.124;2023-03-30T17:31:04;17.60;;;11.20;;
44214;SDS011;29884;47.450;19.124;2023-03-30T17:33:35;13.55;;;10.25;;
44214;SDS011;29884;47.450;19.124;2023-03-30T17:36:02;15.77;;;10.30;;